createdAt,value
2018-06-21T00:01:17.408Z,99364.61
2018-06-21T00:03:47.646Z,99363.70
2018-06-21T00:06:17.866Z,99359.58
2018-06-21T00:08:48.057Z,99357.94
2018-06-21T00:11:18.271Z,99358.20
2018-06-21T00:13:48.466Z,99354.71
2018-06-21T00:16:18.700Z,99353.00
2018-06-21T00:18:48.875Z,99351.19
2018-06-21T00:21:19.052Z,99353.46
2018-06-21T00:23:49.179Z,99347.95
2018-06-21T00:26:19.378Z,99349.64
2018-06-21T00:28:49.742Z,99351.98
2018-06-21T00:31:19.879Z,99345.16
2018-06-21T00:33:50.121Z,99343.35
2018-06-21T00:36:20.311Z,99342.41
2018-06-21T00:38:50.423Z,99342.66
2018-06-21T00:41:20.526Z,99344.11
2018-06-21T00:43:50.554Z,99343.30
2018-06-21T00:46:20.982Z,99340.55
2018-06-21T00:48:51.053Z,99336.59
2018-06-21T00:51:21.225Z,99335.61
2018-06-21T00:53:51.404Z,99332.59
2018-06-21T00:56:21.695Z,99336.24
2018-06-21T00:58:52.087Z,99333.88
2018-06-21T01:01:22.214Z,99331.34
2018-06-21T01:03:52.358Z,99328.11
2018-06-21T01:06:22.583Z,99325.63
2018-06-21T01:08:52.807Z,99317.19
2018-06-21T01:11:23.953Z,99316.93
2018-06-21T01:13:54.070Z,99318.61
2018-06-21T01:16:24.306Z,99317.80
2018-06-21T01:18:54.479Z,99320.14
2018-06-21T01:21:24.811Z,99315.50
2018-06-21T01:23:54.954Z,99316.39
2018-06-21T01:26:24.799Z,99314.69
2018-06-21T01:28:54.963Z,99316.63
2018-06-21T01:31:25.045Z,99310.16
2018-06-21T01:33:55.615Z,99309.00
2018-06-21T01:36:25.721Z,99310.08
2018-06-21T01:38:55.524Z,99309.82
2018-06-21T01:41:25.664Z,99307.41
2018-06-21T01:43:55.968Z,99292.02
2018-06-21T01:46:26.061Z,99299.71
2018-06-21T01:48:56.730Z,99302.03
2018-06-21T01:51:27.163Z,99300.73
2018-06-21T01:53:57.538Z,99292.52
2018-06-21T01:56:27.622Z,99293.90
2018-06-21T01:58:57.612Z,99292.86
2018-06-21T02:01:27.906Z,99283.91
2018-06-21T02:03:58.058Z,99283.09
2018-06-21T02:06:28.407Z,99282.99
2018-06-21T02:08:58.725Z,99281.18
2018-06-21T02:11:28.866Z,99282.30
2018-06-21T02:13:58.911Z,99286.20
2018-06-21T02:16:29.105Z,99279.55
2018-06-21T02:18:59.522Z,99276.69
2018-06-21T02:21:29.642Z,99269.94
2018-06-21T02:23:59.903Z,99270.27
2018-06-21T02:26:30.080Z,99265.59
2018-06-21T02:29:00.331Z,99264.86
2018-06-21T02:31:30.590Z,99266.91
2018-06-21T02:34:00.653Z,99266.16
2018-06-21T02:36:30.927Z,99266.79
2018-06-21T02:39:01.035Z,99270.09
2018-06-21T02:41:31.091Z,99261.37
2018-06-21T02:44:01.309Z,99261.67
2018-06-21T02:46:31.443Z,99265.79
2018-06-21T02:49:01.579Z,99260.37
2018-06-21T02:51:31.894Z,99259.36
2018-06-21T02:54:02.033Z,99258.84
2018-06-21T02:56:32.345Z,99261.59
2018-06-21T02:59:08.416Z,99266.05
2018-06-21T03:01:38.595Z,99268.23
2018-06-21T03:04:08.739Z,99269.35
2018-06-21T03:06:38.867Z,99262.78
2018-06-21T03:09:09.680Z,99260.59
2018-06-21T03:11:39.966Z,99254.42
2018-06-21T03:14:10.043Z,99252.30
2018-06-21T03:16:40.315Z,99251.78
2018-06-21T03:19:10.533Z,99255.91
2018-06-21T03:21:41.067Z,99253.67
2018-06-21T03:24:11.330Z,99250.48
2018-06-21T03:26:41.454Z,99251.04
2018-06-21T03:29:11.668Z,99252.52
2018-06-21T03:31:41.848Z,99254.52
2018-06-21T03:34:11.969Z,99261.75
2018-06-21T03:36:42.252Z,99247.27
2018-06-21T03:39:12.349Z,99252.13
2018-06-21T03:41:42.677Z,99250.44
2018-06-21T03:44:12.896Z,99249.81
2018-06-21T03:46:43.198Z,99252.85
2018-06-21T03:49:13.400Z,99255.05
2018-06-21T03:51:43.253Z,99249.00
2018-06-21T03:54:14.095Z,99246.19
2018-06-21T03:56:44.462Z,99242.83
2018-06-21T03:59:14.619Z,99245.02
2018-06-21T04:01:44.823Z,99246.91
2018-06-21T04:04:15.050Z,99246.80
2018-06-21T04:06:45.145Z,99246.96
2018-06-21T04:09:15.346Z,99242.77
2018-06-21T04:11:45.680Z,99241.66
2018-06-21T04:14:15.839Z,99239.41
2018-06-21T04:16:46.070Z,99236.30
2018-06-21T04:19:15.850Z,99235.73
2018-06-21T04:21:46.762Z,99234.19
2018-06-21T04:24:17.215Z,99240.13
2018-06-21T04:26:47.331Z,99236.13
2018-06-21T04:29:17.498Z,99240.17
2018-06-21T04:31:47.676Z,99247.55
2018-06-21T04:34:17.879Z,99238.13
2018-06-21T04:36:48.031Z,99238.02
2018-06-21T04:39:18.116Z,99239.13
2018-06-21T04:41:48.341Z,99239.58
2018-06-21T04:44:18.471Z,99233.16
2018-06-21T04:46:48.482Z,99243.44
2018-06-21T04:49:18.601Z,99236.68
2018-06-21T04:51:48.843Z,99240.13
2018-06-21T04:54:19.156Z,99239.22
2018-06-21T04:56:49.268Z,99232.89
2018-06-21T04:59:19.554Z,99228.95
2018-06-21T05:01:49.854Z,99228.49
2018-06-21T05:04:20.205Z,99230.48
2018-06-21T05:06:50.464Z,99234.40
2018-06-21T05:09:20.610Z,99232.86
2018-06-21T05:11:50.795Z,99229.68
2018-06-21T05:14:21.746Z,99227.61
2018-06-21T05:16:52.094Z,99220.90
2018-06-21T05:19:22.959Z,99222.64
2018-06-21T05:21:53.239Z,99220.93
2018-06-21T05:24:23.536Z,99227.76
2018-06-21T05:26:53.914Z,99227.33
2018-06-21T05:29:24.154Z,99225.98
2018-06-21T05:31:54.440Z,99227.13
2018-06-21T05:34:24.770Z,99222.05
2018-06-21T05:36:55.003Z,99220.58
2018-06-21T05:39:25.238Z,99221.25
2018-06-21T05:41:55.572Z,99214.20
2018-06-21T05:44:25.465Z,99213.64
2018-06-21T05:46:55.555Z,99214.84
2018-06-21T05:49:25.478Z,99213.88
2018-06-21T05:51:55.771Z,99211.84
2018-06-21T05:54:26.025Z,99212.42
2018-06-21T05:56:55.934Z,99218.75
2018-06-21T05:59:26.159Z,99218.44
2018-06-21T06:01:56.698Z,99212.78
2018-06-21T06:04:27.150Z,99217.78
2018-06-21T06:06:57.229Z,99216.03
2018-06-21T06:09:27.664Z,99213.84
2018-06-21T06:11:57.786Z,99218.29
2018-06-21T06:14:27.724Z,99211.72
2018-06-21T06:16:58.023Z,99212.22
2018-06-21T06:19:28.239Z,99211.22
2018-06-21T06:21:58.391Z,99213.72
2018-06-21T06:24:29.346Z,99213.06
2018-06-21T06:26:59.416Z,99211.02
2018-06-21T06:29:29.670Z,99211.93
2018-06-21T06:31:59.844Z,99207.48
2018-06-21T06:34:30.286Z,99198.59
2018-06-21T06:37:00.482Z,99196.72
2018-06-21T06:39:30.698Z,99197.46
2018-06-21T06:42:00.919Z,99188.53
2018-06-21T06:44:30.881Z,99188.98
2018-06-21T06:47:01.824Z,99184.54
2018-06-21T06:49:31.967Z,99184.05
2018-06-21T06:52:02.472Z,99183.88
2018-06-21T06:54:32.880Z,99184.88
2018-06-21T06:57:03.962Z,99184.46
2018-06-21T06:59:34.060Z,99179.91
2018-06-21T07:02:04.286Z,99177.11
2018-06-21T07:04:34.426Z,99172.77
2018-06-21T07:07:05.045Z,99173.64
2018-06-21T07:09:35.026Z,99171.84
2018-06-21T07:12:11.720Z,99170.24
2018-06-21T07:14:42.044Z,99155.02
2018-06-21T07:17:12.286Z,99162.03
2018-06-21T07:19:42.669Z,99163.25
2018-06-21T07:22:12.904Z,99155.99
2018-06-21T07:24:43.058Z,99159.48
2018-06-21T07:27:13.300Z,99158.45
2018-06-21T07:29:43.540Z,99140.37
2018-06-21T07:32:13.806Z,99157.63
2018-06-21T07:34:44.660Z,99157.76
2018-06-21T07:37:14.746Z,99159.64
2018-06-21T07:39:45.785Z,99149.41
2018-06-21T07:42:15.618Z,99149.02
2018-06-21T07:44:45.744Z,99147.76
2018-06-21T07:47:15.819Z,99141.91
2018-06-21T07:49:47.051Z,99145.61
2018-06-21T07:52:17.118Z,99145.28
2018-06-21T07:54:47.753Z,99140.69
2018-06-21T07:57:18.038Z,99140.23
2018-06-21T07:59:48.364Z,99133.56
2018-06-21T08:02:18.516Z,99133.56
2018-06-21T08:04:48.852Z,99131.73
2018-06-21T08:07:18.982Z,99124.15
2018-06-21T08:09:49.192Z,99123.70
2018-06-21T08:12:19.403Z,99121.77
2018-06-21T08:14:49.694Z,99123.05
2018-06-21T08:17:19.544Z,99119.34
2018-06-21T08:19:49.832Z,99114.05
2018-06-21T08:22:19.821Z,99114.50
2018-06-21T08:24:49.915Z,99113.69
2018-06-21T08:27:20.020Z,99106.53
2018-06-21T08:29:50.211Z,99102.13
2018-06-21T08:32:20.382Z,99094.27
2018-06-21T08:34:50.884Z,99097.86
2018-06-21T08:37:21.056Z,99096.69
2018-06-21T08:39:51.769Z,99096.75
2018-06-21T08:42:22.068Z,99094.80
2018-06-21T08:44:52.359Z,99088.98
2018-06-21T08:47:22.511Z,99090.80
2018-06-21T08:49:52.703Z,99082.30
2018-06-21T08:52:23.038Z,99086.30
2018-06-21T08:54:53.042Z,99081.06
2018-06-21T08:57:24.792Z,99078.20
2018-06-21T08:59:55.624Z,99072.46
2018-06-21T09:02:25.972Z,99081.38
2018-06-21T09:04:56.065Z,99074.77
2018-06-21T09:07:26.200Z,99072.95
2018-06-21T09:09:56.578Z,99071.30
2018-06-21T09:12:30.853Z,99069.48
2018-06-21T09:15:01.145Z,99065.39
2018-06-21T09:17:31.236Z,99063.70
2018-06-21T09:20:01.351Z,99062.98
2018-06-21T09:22:31.940Z,99062.05
2018-06-21T09:25:02.603Z,99056.47
2018-06-21T09:27:32.746Z,99055.93
2018-06-21T09:30:03.180Z,99052.95
2018-06-21T09:32:33.589Z,99046.96
2018-06-21T09:35:03.767Z,99047.61
2018-06-21T09:37:39.099Z,99043.47
2018-06-21T09:40:14.428Z,99038.28
2018-06-21T09:42:49.669Z,99040.71
2018-06-21T09:45:25.031Z,99044.34
2018-06-21T09:48:00.111Z,99043.31
2018-06-21T09:50:30.150Z,99035.26
2018-06-21T09:53:00.354Z,99044.70
2018-06-21T09:55:30.579Z,99029.02
2018-06-21T09:58:00.915Z,99024.39
2018-06-21T10:00:36.177Z,99025.41
2018-06-21T10:03:06.467Z,99023.02
2018-06-21T10:05:36.922Z,99016.52
2018-06-21T10:08:06.835Z,99021.56
2018-06-21T10:10:37.061Z,99014.43
2018-06-21T10:13:07.285Z,99004.05
2018-06-21T10:15:37.677Z,99003.83
2018-06-21T10:18:08.144Z,99004.63
2018-06-21T10:20:38.631Z,98996.63
2018-06-21T10:23:09.067Z,98990.58
2018-06-21T10:25:39.898Z,98995.69
2018-06-21T10:28:10.211Z,98895.77
2018-06-21T10:30:40.365Z,98972.89
2018-06-21T10:33:10.981Z,98965.19
2018-06-21T10:35:41.203Z,98960.47
2018-06-21T10:38:11.366Z,98957.20
2018-06-21T10:40:41.785Z,98956.93
2018-06-21T10:43:11.908Z,98951.08
2018-06-21T10:45:42.027Z,98949.02
2018-06-21T10:48:12.091Z,98939.22
2018-06-21T10:50:42.487Z,98938.48
2018-06-21T10:53:12.692Z,98939.98
2018-06-21T10:55:42.998Z,98935.56
2018-06-21T10:58:13.248Z,98928.13
2018-06-21T11:00:43.332Z,98927.50
2018-06-21T11:03:14.017Z,98930.04
2018-06-21T11:05:44.298Z,98926.08
2018-06-21T11:08:14.592Z,98922.94
2018-06-21T11:10:44.733Z,98922.12
2018-06-21T11:13:14.850Z,98919.31
2018-06-21T11:15:45.060Z,98909.14
2018-06-21T11:18:15.331Z,98911.67
2018-06-21T11:20:45.714Z,98912.02
2018-06-21T11:23:15.952Z,98907.84
2018-06-21T11:25:46.135Z,98911.18
2018-06-21T11:28:17.111Z,98901.56
2018-06-21T11:30:47.493Z,98904.98
2018-06-21T11:33:17.865Z,98903.34
2018-06-21T11:35:48.038Z,98892.30
2018-06-21T11:38:18.710Z,98889.45
2018-06-21T11:40:49.051Z,98886.44
2018-06-21T11:43:19.459Z,98883.23
2018-06-21T11:45:49.647Z,98876.59
2018-06-21T11:48:19.802Z,98870.61
2018-06-21T11:50:49.921Z,98877.97
2018-06-21T11:53:20.155Z,98876.19
2018-06-21T11:55:50.416Z,98867.05
2018-06-21T11:58:20.341Z,98867.89
2018-06-21T12:00:50.374Z,98861.91
2018-06-21T12:03:20.409Z,98856.03
2018-06-21T12:05:50.948Z,98854.30
2018-06-21T12:08:21.088Z,98863.70
2018-06-21T12:10:51.266Z,98857.30
2018-06-21T12:13:21.554Z,98854.50
2018-06-21T12:15:51.791Z,98850.25
2018-06-21T12:18:22.062Z,98840.92
2018-06-21T12:20:52.227Z,98841.77
2018-06-21T12:23:22.510Z,98835.48
2018-06-21T12:25:52.671Z,98830.91
2018-06-21T12:28:22.851Z,98831.79
2018-06-21T12:30:52.971Z,98830.77
2018-06-21T12:33:23.284Z,98826.38
2018-06-21T12:35:53.524Z,98818.98
2018-06-21T12:38:23.714Z,98818.59
2018-06-21T12:40:54.187Z,98812.60
2018-06-21T12:43:24.268Z,98816.58
2018-06-21T12:45:54.523Z,98812.80
2018-06-21T12:48:24.734Z,98805.02
2018-06-21T12:50:54.867Z,98793.93
2018-06-21T12:53:24.978Z,98788.88
2018-06-21T12:55:54.986Z,98782.31
2018-06-21T12:58:25.198Z,98784.84
2018-06-21T13:00:55.451Z,98778.45
2018-06-21T13:03:25.579Z,98774.28
2018-06-21T13:05:56.350Z,98775.65
2018-06-21T13:08:37.552Z,98781.64
2018-06-21T13:21:09.711Z,98765.61
2018-06-21T13:23:39.830Z,98748.27
2018-06-21T13:26:10.271Z,98750.09
2018-06-21T13:28:40.591Z,98742.30
2018-06-21T13:31:10.612Z,98740.94
2018-06-21T13:33:40.723Z,98744.07
2018-06-21T13:36:10.842Z,98742.84
2018-06-21T13:38:41.042Z,98754.03
2018-06-21T13:41:11.223Z,98753.45
2018-06-21T13:43:41.310Z,98743.74
2018-06-21T13:46:11.437Z,98750.25
2018-06-21T13:48:42.396Z,98751.02
2018-06-21T13:51:12.311Z,98735.03
2018-06-21T13:53:42.593Z,98758.98
2018-06-21T13:56:13.254Z,98738.26
2018-06-21T13:58:43.439Z,98747.28
2018-06-21T14:01:13.739Z,98743.37
2018-06-21T14:03:43.884Z,98741.04
2018-06-21T14:06:14.054Z,98728.93
2018-06-21T14:08:44.321Z,98733.88
2018-06-21T14:11:14.671Z,98731.15
2018-06-21T14:13:44.774Z,98721.90
2018-06-21T14:16:15.079Z,98730.88
2018-06-21T14:18:44.834Z,98716.86
2018-06-21T14:21:14.844Z,98722.15
2018-06-21T14:23:44.958Z,98719.53
2018-06-21T14:26:14.983Z,98718.50
2018-06-21T14:28:45.917Z,98708.34
2018-06-21T14:31:16.022Z,98701.37
2018-06-21T14:33:46.331Z,98709.37
2018-06-21T14:36:16.419Z,98700.44
2018-06-21T14:38:46.601Z,98700.48
2018-06-21T14:41:16.770Z,98705.54
2018-06-21T14:43:46.651Z,98697.28
2018-06-21T14:46:16.858Z,98700.31
2018-06-21T14:48:47.159Z,98702.45
2018-06-21T14:51:17.541Z,98702.28
2018-06-21T14:53:47.760Z,98686.88
2018-06-21T14:56:18.159Z,98679.83
2018-06-21T14:58:48.638Z,98682.30
2018-06-21T15:01:18.824Z,98679.41
2018-06-21T15:03:48.946Z,98658.09
2018-06-21T15:06:18.995Z,98654.78
2018-06-21T15:08:49.849Z,98655.09
2018-06-21T15:11:20.026Z,98646.58
2018-06-21T15:13:51.407Z,98645.94
2018-06-21T15:16:22.720Z,98643.20
2018-06-21T15:18:52.619Z,98632.66
2018-06-21T15:21:22.514Z,98633.09
2018-06-21T15:23:52.706Z,98635.03
2018-06-21T15:26:23.402Z,98630.31
2018-06-21T15:28:53.658Z,98629.11
2018-06-21T15:31:23.935Z,98634.51
2018-06-21T15:33:53.926Z,98635.39
2018-06-21T15:36:24.123Z,98638.59
2018-06-21T15:38:57.682Z,98640.58
2018-06-21T15:41:28.956Z,98632.92
2018-06-21T15:43:59.136Z,98632.56
2018-06-21T15:46:29.395Z,98619.90
2018-06-21T15:48:59.501Z,98623.20
2018-06-21T15:51:29.935Z,98612.88
2018-06-21T15:54:00.286Z,98618.88
2018-06-21T15:56:30.467Z,98597.40
2018-06-21T15:59:00.495Z,98594.98
2018-06-21T16:01:30.501Z,98586.52
2018-06-21T16:04:00.591Z,98585.20
2018-06-21T16:06:31.455Z,98580.41
2018-06-21T16:09:01.684Z,98571.88
2018-06-21T16:11:31.590Z,98567.87
2018-06-21T16:14:01.832Z,98570.59
2018-06-21T16:16:31.967Z,98567.22
2018-06-21T16:19:02.150Z,98568.42
2018-06-21T16:21:33.909Z,98559.71
2018-06-21T16:24:04.164Z,98553.69
2018-06-21T16:26:34.512Z,98561.98
2018-06-21T16:29:04.887Z,98563.46
2018-06-21T16:31:35.208Z,98560.95
2018-06-21T16:34:05.437Z,98553.57
2018-06-21T16:36:35.798Z,98557.50
2018-06-21T16:39:08.174Z,98553.84
2018-06-21T16:41:38.437Z,98560.35
2018-06-21T16:44:08.678Z,98571.20
2018-06-21T16:46:38.847Z,98565.16
2018-06-21T16:49:09.154Z,98583.13
2018-06-21T16:51:39.235Z,98586.66
2018-06-21T16:54:09.432Z,98577.48
2018-06-21T16:56:39.611Z,98576.97
2018-06-21T16:59:09.858Z,98578.95
2018-06-21T17:01:40.185Z,98587.28
2018-06-21T17:04:10.455Z,98588.45
2018-06-21T17:06:40.947Z,98592.48
2018-06-21T17:09:11.567Z,98596.94
2018-06-21T17:11:42.259Z,98596.31
2018-06-21T17:14:12.463Z,98592.13
2018-06-21T17:16:42.786Z,98589.13
2018-06-21T17:19:13.369Z,98582.16
2018-06-21T17:21:43.603Z,98596.28
2018-06-21T17:24:13.787Z,98593.50
2018-06-21T17:26:44.053Z,98593.25
2018-06-21T17:29:14.454Z,98594.23
2018-06-21T17:31:44.654Z,98594.00
2018-06-21T17:34:14.765Z,98587.97
2018-06-21T17:36:45.019Z,98590.36
2018-06-21T17:39:15.464Z,98591.36
2018-06-21T17:41:45.544Z,98582.22
2018-06-21T17:44:16.478Z,98580.98
2018-06-21T17:46:46.695Z,98579.20
2018-06-21T17:49:16.900Z,98578.21
2018-06-21T17:51:47.067Z,98585.13
2018-06-21T17:54:17.335Z,98586.73
2018-06-21T17:56:47.492Z,98586.06
2018-06-21T17:59:17.845Z,98579.59
2018-06-21T18:01:48.071Z,98576.78
2018-06-21T18:04:18.229Z,98575.55
2018-06-21T18:06:48.510Z,98580.33
2018-06-21T18:09:18.714Z,98592.80
2018-06-21T18:11:49.030Z,98589.96
2018-06-21T18:14:19.596Z,98596.47
2018-06-21T18:16:49.671Z,98589.98
2018-06-21T18:19:19.858Z,98558.83
2018-06-21T18:21:50.179Z,98597.08
2018-06-21T18:24:20.267Z,98608.13
2018-06-21T18:26:50.505Z,98615.45
2018-06-21T18:29:20.650Z,98617.18
2018-06-21T18:31:50.824Z,98621.54
2018-06-21T18:34:21.029Z,98625.95
2018-06-21T18:36:51.250Z,98622.80
2018-06-21T18:39:21.519Z,98629.94
2018-06-21T18:41:52.428Z,98640.55
2018-06-21T18:44:22.840Z,98630.83
2018-06-21T18:46:52.977Z,98631.74
2018-06-21T18:49:22.870Z,98628.61
2018-06-21T18:51:53.148Z,98629.62
2018-06-21T18:54:23.319Z,98628.55
2018-06-21T18:56:53.608Z,98631.89
2018-06-21T18:59:24.160Z,98624.72
2018-06-21T19:01:54.041Z,98648.15
2018-06-21T19:04:24.801Z,98645.45
2018-06-21T19:07:00.304Z,98640.73
2018-06-21T19:09:35.390Z,98650.53
2018-06-21T19:12:07.461Z,98647.53
2018-06-21T19:14:37.383Z,98649.70
2018-06-21T19:17:07.663Z,98646.58
2018-06-21T19:19:37.800Z,98670.18
2018-06-21T19:22:08.141Z,98684.69
2018-06-21T19:24:38.374Z,98706.02
2018-06-21T19:27:09.141Z,98719.68
2018-06-21T19:29:39.568Z,98741.53
2018-06-21T19:32:09.741Z,98742.87
2018-06-21T19:34:40.094Z,98762.39
2018-06-21T19:37:10.219Z,98772.16
2018-06-21T19:39:40.416Z,98781.67
2018-06-21T19:42:10.706Z,98796.00
2018-06-21T19:44:40.555Z,98801.11
2018-06-21T19:47:10.783Z,98795.69
2018-06-21T19:49:40.907Z,98811.05
2018-06-21T19:52:11.212Z,98831.16
2018-06-21T19:54:41.471Z,98835.87
2018-06-21T19:57:11.946Z,98857.48
2018-06-21T19:59:42.174Z,98863.77
2018-06-21T20:02:12.374Z,98874.57
2018-06-21T20:04:42.351Z,98866.86
2018-06-21T20:07:12.491Z,98872.84
2018-06-21T20:09:42.697Z,98899.86
2018-06-21T20:12:13.094Z,98900.11
2018-06-21T20:14:42.998Z,98889.00
2018-06-21T20:17:13.471Z,98914.86
2018-06-21T20:19:48.428Z,98913.20
2018-06-21T20:22:18.635Z,98932.77
2018-06-21T20:24:48.708Z,98936.44
2018-06-21T20:27:18.980Z,98955.00
2018-06-21T20:29:49.384Z,98959.20
2018-06-21T20:32:19.687Z,98964.72
2018-06-21T20:34:49.938Z,98980.70
2018-06-21T20:37:20.193Z,98979.89
2018-06-21T20:39:50.073Z,98996.48
2018-06-21T20:42:20.269Z,99021.24
2018-06-21T20:44:50.614Z,99016.62
2018-06-21T20:47:20.736Z,99026.04
2018-06-21T20:49:50.897Z,99030.78
2018-06-21T20:52:26.263Z,99029.97
2018-06-21T20:54:56.811Z,99035.08
2018-06-21T20:57:28.006Z,99047.67
2018-06-21T20:59:58.567Z,99060.38
2018-06-21T21:02:28.853Z,99071.95
2018-06-21T21:05:09.735Z,99058.33
2018-06-21T21:07:40.198Z,99074.56
2018-06-21T21:10:11.868Z,99083.19
2018-06-21T21:12:41.870Z,99086.76
2018-06-21T21:15:13.068Z,99075.22
2018-06-21T21:17:43.326Z,99087.31
2018-06-21T21:20:13.602Z,99089.82
2018-06-21T21:22:43.541Z,99094.16
2018-06-21T21:25:13.540Z,99094.22
2018-06-21T21:27:43.502Z,99100.45
2018-06-21T21:30:13.716Z,99114.48
2018-06-21T21:32:44.187Z,99104.91
2018-06-21T21:35:14.252Z,99119.66
2018-06-21T21:37:44.555Z,99126.09
2018-06-21T21:40:18.743Z,99126.45
2018-06-21T21:42:48.888Z,99131.28
2018-06-21T21:45:19.159Z,99132.09
2018-06-21T21:47:49.227Z,99146.39
2018-06-21T21:50:19.502Z,99155.69
2018-06-21T21:52:49.706Z,99136.66
2018-06-21T21:55:19.677Z,99151.30
2018-06-21T21:57:49.921Z,99158.92
2018-06-21T22:00:57.672Z,99164.34
2018-06-21T22:03:29.039Z,99173.30
2018-06-21T22:05:58.950Z,99173.73
2018-06-21T22:08:29.050Z,99182.53
2018-06-21T22:10:59.357Z,99191.80
2018-06-21T22:13:29.314Z,99189.27
2018-06-21T22:15:59.931Z,99198.53
2018-06-21T22:18:30.458Z,99204.16
2018-06-21T22:21:00.747Z,99215.03
2018-06-21T22:23:30.744Z,99218.64
2018-06-21T22:26:00.971Z,99231.55
2018-06-21T22:28:31.140Z,99238.05
2018-06-21T22:31:01.278Z,99246.59
2018-06-21T22:33:31.120Z,99256.45
2018-06-21T22:36:01.263Z,99262.31
2018-06-21T22:38:31.296Z,99263.88
2018-06-21T22:41:01.555Z,99272.58
2018-06-21T22:43:31.378Z,99279.03
2018-06-21T22:46:01.499Z,99278.50
2018-06-21T22:48:31.367Z,99277.63
2018-06-21T22:51:01.635Z,99275.98
2018-06-21T22:53:31.518Z,99280.23
2018-06-21T22:56:02.606Z,99281.12
2018-06-21T22:58:32.866Z,99281.73
2018-06-21T23:01:03.106Z,99282.08
2018-06-21T23:03:33.553Z,99283.87
2018-06-21T23:06:03.799Z,99281.48
2018-06-21T23:08:34.022Z,99278.72
2018-06-21T23:11:04.819Z,99289.34
2018-06-21T23:13:36.406Z,99285.61
2018-06-21T23:16:06.612Z,99289.61
2018-06-21T23:18:47.378Z,99288.23
2018-06-21T23:21:17.396Z,99281.12
2018-06-21T23:23:47.691Z,99296.88
2018-06-21T23:26:17.765Z,99289.22
2018-06-21T23:28:47.892Z,99290.75
2018-06-21T23:31:17.966Z,99293.48
2018-06-21T23:33:48.907Z,99290.34
2018-06-21T23:36:19.310Z,99288.81
2018-06-21T23:38:49.505Z,99300.13
2018-06-21T23:41:19.588Z,99306.55
2018-06-21T23:43:49.723Z,99304.83
2018-06-21T23:46:19.738Z,99303.73
2018-06-21T23:48:50.008Z,99296.80
2018-06-21T23:51:20.083Z,99293.02
2018-06-21T23:53:50.391Z,99299.08
2018-06-21T23:56:20.630Z,99284.27
2018-06-21T23:58:50.859Z,99285.63
